sensor_id;sensor_type;location;lat;lon;timestamp;P1;durP1;ratioP1;P2;durP2;ratioP2
30539;SDS011;17321;46.312;4.776;2024-01-16T00:01:46;34.38;;;18.10;;
30539;SDS011;17321;46.312;4.776;2024-01-16T00:04:12;41.35;;;20.13;;
30539;SDS011;17321;46.312;4.776;2024-01-16T00:06:42;31.95;;;17.17;;
30539;SDS011;17321;46.312;4.776;2024-01-16T00:11:39;34.03;;;16.83;;
30539;SDS011;17321;46.312;4.776;2024-01-16T00:14:06;33.10;;;18.17;;
30539;SDS011;17321;46.312;4.776;2024-01-16T00:16:32;30.95;;;16.55;;
30539;SDS011;17321;46.312;4.776;2024-01-16T00:18:58;30.27;;;16.10;;
30539;SDS011;17321;46.312;4.776;2024-01-16T00:21:24;33.55;;;17.42;;
30539;SDS011;17321;46.312;4.776;2024-01-16T00:23:50;30.27;;;15.93;;
30539;SDS011;17321;46.312;4.776;2024-01-16T00:26:22;35.75;;;18.05;;
30539;SDS011;17321;46.312;4.776;2024-01-16T00:28:48;35.28;;;17.38;;
30539;SDS011;17321;46.312;4.776;2024-01-16T00:31:14;34.00;;;17.08;;
30539;SDS011;17321;46.312;4.776;2024-01-16T00:33:40;33.33;;;16.55;;
30539;SDS011;17321;46.312;4.776;2024-01-16T00:36:06;32.50;;;16.58;;
30539;SDS011;17321;46.312;4.776;2024-01-16T00:38:33;34.15;;;18.33;;
30539;SDS011;17321;46.312;4.776;2024-01-16T00:40:59;30.20;;;17.48;;
30539;SDS011;17321;46.312;4.776;2024-01-16T00:43:25;36.38;;;17.55;;
30539;SDS011;17321;46.312;4.776;2024-01-16T00:45:51;31.80;;;18.23;;
30539;SDS011;17321;46.312;4.776;2024-01-16T00:48:17;32.97;;;17.23;;
30539;SDS011;17321;46.312;4.776;2024-01-16T00:50:45;38.85;;;19.02;;
30539;SDS011;17321;46.312;4.776;2024-01-16T00:53:13;30.77;;;16.55;;
30539;SDS011;17321;46.312;4.776;2024-01-16T00:55:39;37.67;;;17.77;;
30539;SDS011;17321;46.312;4.776;2024-01-16T00:58:05;36.63;;;18.38;;
30539;SDS011;17321;46.312;4.776;2024-01-16T01:00:31;32.53;;;17.27;;
30539;SDS011;17321;46.312;4.776;2024-01-16T01:02:58;36.05;;;17.92;;
30539;SDS011;17321;46.312;4.776;2024-01-16T01:05:24;32.40;;;17.20;;
30539;SDS011;17321;46.312;4.776;2024-01-16T01:07:53;31.95;;;17.63;;
30539;SDS011;17321;46.312;4.776;2024-01-16T01:10:19;31.63;;;16.55;;
30539;SDS011;17321;46.312;4.776;2024-01-16T01:12:45;31.73;;;15.70;;
30539;SDS011;17321;46.312;4.776;2024-01-16T01:15:11;29.67;;;15.95;;
30539;SDS011;17321;46.312;4.776;2024-01-16T01:17:39;31.38;;;15.98;;
30539;SDS011;17321;46.312;4.776;2024-01-16T01:20:05;30.67;;;15.32;;
30539;SDS011;17321;46.312;4.776;2024-01-16T01:22:31;25.27;;;15.95;;
30539;SDS011;17321;46.312;4.776;2024-01-16T01:24:57;33.08;;;16.25;;
30539;SDS011;17321;46.312;4.776;2024-01-16T01:27:23;28.80;;;15.38;;
30539;SDS011;17321;46.312;4.776;2024-01-16T01:29:49;26.60;;;15.60;;
30539;SDS011;17321;46.312;4.776;2024-01-16T01:32:15;27.55;;;15.50;;
30539;SDS011;17321;46.312;4.776;2024-01-16T01:34:41;31.15;;;16.38;;
30539;SDS011;17321;46.312;4.776;2024-01-16T01:37:07;27.02;;;14.45;;
30539;SDS011;17321;46.312;4.776;2024-01-16T01:39:33;34.13;;;16.90;;
30539;SDS011;17321;46.312;4.776;2024-01-16T01:42:00;33.20;;;16.67;;
30539;SDS011;17321;46.312;4.776;2024-01-16T01:44:26;38.53;;;19.50;;
30539;SDS011;17321;46.312;4.776;2024-01-16T01:46:53;38.42;;;18.60;;
30539;SDS011;17321;46.312;4.776;2024-01-16T01:49:20;37.97;;;19.38;;
30539;SDS011;17321;46.312;4.776;2024-01-16T01:51:47;34.75;;;18.10;;
30539;SDS011;17321;46.312;4.776;2024-01-16T01:54:13;40.47;;;18.63;;
30539;SDS011;17321;46.312;4.776;2024-01-16T01:56:41;47.35;;;21.30;;
30539;SDS011;17321;46.312;4.776;2024-01-16T01:59:08;42.30;;;20.58;;
30539;SDS011;17321;46.312;4.776;2024-01-16T02:01:34;41.28;;;18.85;;
30539;SDS011;17321;46.312;4.776;2024-01-16T02:04:00;35.05;;;18.58;;
30539;SDS011;17321;46.312;4.776;2024-01-16T02:06:27;34.03;;;17.75;;
30539;SDS011;17321;46.312;4.776;2024-01-16T02:08:53;32.63;;;16.90;;
30539;SDS011;17321;46.312;4.776;2024-01-16T02:11:19;32.58;;;15.82;;
30539;SDS011;17321;46.312;4.776;2024-01-16T02:13:45;31.67;;;16.50;;
30539;SDS011;17321;46.312;4.776;2024-01-16T02:16:18;34.47;;;16.90;;
30539;SDS011;17321;46.312;4.776;2024-01-16T02:18:45;28.58;;;15.02;;
30539;SDS011;17321;46.312;4.776;2024-01-16T02:21:11;26.95;;;14.43;;
30539;SDS011;17321;46.312;4.776;2024-01-16T02:23:38;30.00;;;16.08;;
30539;SDS011;17321;46.312;4.776;2024-01-16T02:26:04;33.83;;;15.60;;
30539;SDS011;17321;46.312;4.776;2024-01-16T02:28:30;34.05;;;15.88;;
30539;SDS011;17321;46.312;4.776;2024-01-16T02:30:56;26.45;;;13.80;;
30539;SDS011;17321;46.312;4.776;2024-01-16T02:33:22;26.60;;;14.73;;
30539;SDS011;17321;46.312;4.776;2024-01-16T02:35:48;26.30;;;13.85;;
30539;SDS011;17321;46.312;4.776;2024-01-16T02:38:14;26.85;;;13.35;;
30539;SDS011;17321;46.312;4.776;2024-01-16T02:40:40;27.02;;;12.43;;
30539;SDS011;17321;46.312;4.776;2024-01-16T02:43:06;25.98;;;13.38;;
30539;SDS011;17321;46.312;4.776;2024-01-16T02:45:32;27.30;;;14.38;;
30539;SDS011;17321;46.312;4.776;2024-01-16T02:47:58;26.67;;;13.80;;
30539;SDS011;17321;46.312;4.776;2024-01-16T02:50:24;34.13;;;15.73;;
30539;SDS011;17321;46.312;4.776;2024-01-16T02:52:50;31.30;;;15.35;;
30539;SDS011;17321;46.312;4.776;2024-01-16T02:55:16;28.25;;;13.88;;
30539;SDS011;17321;46.312;4.776;2024-01-16T02:57:42;33.38;;;14.82;;
30539;SDS011;17321;46.312;4.776;2024-01-16T03:00:08;23.40;;;12.90;;
30539;SDS011;17321;46.312;4.776;2024-01-16T03:02:34;26.83;;;13.48;;
30539;SDS011;17321;46.312;4.776;2024-01-16T03:05:02;26.80;;;13.20;;
30539;SDS011;17321;46.312;4.776;2024-01-16T03:07:28;24.38;;;12.52;;
30539;SDS011;17321;46.312;4.776;2024-01-16T03:09:54;27.95;;;13.55;;
30539;SDS011;17321;46.312;4.776;2024-01-16T03:12:20;21.65;;;12.95;;
30539;SDS011;17321;46.312;4.776;2024-01-16T03:14:46;24.17;;;13.60;;
30539;SDS011;17321;46.312;4.776;2024-01-16T03:17:12;27.63;;;13.57;;
30539;SDS011;17321;46.312;4.776;2024-01-16T03:19:38;24.20;;;12.82;;
30539;SDS011;17321;46.312;4.776;2024-01-16T03:22:04;30.80;;;12.93;;
30539;SDS011;17321;46.312;4.776;2024-01-16T03:24:30;25.58;;;13.10;;
30539;SDS011;17321;46.312;4.776;2024-01-16T03:26:56;28.27;;;13.32;;
30539;SDS011;17321;46.312;4.776;2024-01-16T03:29:22;26.80;;;13.40;;
30539;SDS011;17321;46.312;4.776;2024-01-16T03:31:48;25.42;;;13.05;;
30539;SDS011;17321;46.312;4.776;2024-01-16T03:34:14;24.30;;;12.05;;
30539;SDS011;17321;46.312;4.776;2024-01-16T03:36:40;23.25;;;12.73;;
30539;SDS011;17321;46.312;4.776;2024-01-16T03:39:06;22.67;;;11.80;;
30539;SDS011;17321;46.312;4.776;2024-01-16T03:41:34;26.88;;;13.43;;
30539;SDS011;17321;46.312;4.776;2024-01-16T03:44:00;26.75;;;12.73;;
30539;SDS011;17321;46.312;4.776;2024-01-16T03:46:25;19.25;;;10.95;;
30539;SDS011;17321;46.312;4.776;2024-01-16T03:48:52;23.65;;;12.05;;
30539;SDS011;17321;46.312;4.776;2024-01-16T03:51:18;26.33;;;12.40;;
30539;SDS011;17321;46.312;4.776;2024-01-16T03:53:44;24.30;;;14.13;;
30539;SDS011;17321;46.312;4.776;2024-01-16T03:56:10;26.38;;;13.98;;
30539;SDS011;17321;46.312;4.776;2024-01-16T03:58:37;26.80;;;12.48;;
30539;SDS011;17321;46.312;4.776;2024-01-16T04:01:03;27.75;;;12.52;;
30539;SDS011;17321;46.312;4.776;2024-01-16T04:03:29;29.67;;;13.18;;
30539;SDS011;17321;46.312;4.776;2024-01-16T04:05:55;25.20;;;12.23;;
30539;SDS011;17321;46.312;4.776;2024-01-16T04:08:21;25.60;;;12.65;;
30539;SDS011;17321;46.312;4.776;2024-01-16T04:10:47;34.38;;;13.48;;
30539;SDS011;17321;46.312;4.776;2024-01-16T04:13:13;24.58;;;12.07;;
30539;SDS011;17321;46.312;4.776;2024-01-16T04:15:39;24.70;;;11.95;;
30539;SDS011;17321;46.312;4.776;2024-01-16T04:18:05;26.33;;;12.25;;
30539;SDS011;17321;46.312;4.776;2024-01-16T04:20:31;22.60;;;11.05;;
30539;SDS011;17321;46.312;4.776;2024-01-16T04:22:57;24.35;;;10.60;;
30539;SDS011;17321;46.312;4.776;2024-01-16T04:25:24;24.23;;;12.40;;
30539;SDS011;17321;46.312;4.776;2024-01-16T04:27:50;24.50;;;11.90;;
30539;SDS011;17321;46.312;4.776;2024-01-16T04:30:16;22.75;;;10.98;;
30539;SDS011;17321;46.312;4.776;2024-01-16T04:32:42;23.40;;;10.85;;
30539;SDS011;17321;46.312;4.776;2024-01-16T04:35:08;21.23;;;11.40;;
30539;SDS011;17321;46.312;4.776;2024-01-16T04:37:34;22.50;;;11.20;;
30539;SDS011;17321;46.312;4.776;2024-01-16T04:40:00;22.00;;;11.23;;
30539;SDS011;17321;46.312;4.776;2024-01-16T04:42:26;22.38;;;10.90;;
30539;SDS011;17321;46.312;4.776;2024-01-16T04:44:52;23.70;;;11.90;;
30539;SDS011;17321;46.312;4.776;2024-01-16T04:47:19;21.55;;;10.75;;
30539;SDS011;17321;46.312;4.776;2024-01-16T04:49:45;22.30;;;10.30;;
30539;SDS011;17321;46.312;4.776;2024-01-16T04:52:11;21.60;;;11.15;;
30539;SDS011;17321;46.312;4.776;2024-01-16T04:54:37;19.33;;;10.93;;
30539;SDS011;17321;46.312;4.776;2024-01-16T04:57:03;26.52;;;10.90;;
30539;SDS011;17321;46.312;4.776;2024-01-16T04:59:29;23.85;;;11.15;;
30539;SDS011;17321;46.312;4.776;2024-01-16T05:01:55;21.90;;;11.32;;
30539;SDS011;17321;46.312;4.776;2024-01-16T05:04:21;21.10;;;11.65;;
30539;SDS011;17321;46.312;4.776;2024-01-16T05:06:51;23.83;;;11.07;;
30539;SDS011;17321;46.312;4.776;2024-01-16T05:09:17;23.08;;;11.18;;
30539;SDS011;17321;46.312;4.776;2024-01-16T05:11:44;25.08;;;10.68;;
30539;SDS011;17321;46.312;4.776;2024-01-16T05:14:11;24.30;;;11.40;;
30539;SDS011;17321;46.312;4.776;2024-01-16T05:16:37;19.15;;;10.77;;
30539;SDS011;17321;46.312;4.776;2024-01-16T05:19:03;20.58;;;10.85;;
30539;SDS011;17321;46.312;4.776;2024-01-16T05:21:29;25.75;;;11.32;;
30539;SDS011;17321;46.312;4.776;2024-01-16T05:23:55;20.73;;;10.73;;
30539;SDS011;17321;46.312;4.776;2024-01-16T05:26:21;20.65;;;11.00;;
30539;SDS011;17321;46.312;4.776;2024-01-16T05:28:47;21.65;;;10.82;;
30539;SDS011;17321;46.312;4.776;2024-01-16T05:31:13;20.95;;;10.77;;
30539;SDS011;17321;46.312;4.776;2024-01-16T05:33:40;19.38;;;10.18;;
30539;SDS011;17321;46.312;4.776;2024-01-16T05:36:06;25.98;;;11.63;;
30539;SDS011;17321;46.312;4.776;2024-01-16T05:38:32;20.38;;;10.77;;
30539;SDS011;17321;46.312;4.776;2024-01-16T05:40:59;28.27;;;12.75;;
30539;SDS011;17321;46.312;4.776;2024-01-16T05:43:25;25.83;;;11.70;;
30539;SDS011;17321;46.312;4.776;2024-01-16T05:45:53;22.87;;;12.07;;
30539;SDS011;17321;46.312;4.776;2024-01-16T05:48:19;24.95;;;11.68;;
30539;SDS011;17321;46.312;4.776;2024-01-16T05:50:45;27.65;;;11.95;;
30539;SDS011;17321;46.312;4.776;2024-01-16T05:53:11;28.42;;;13.25;;
30539;SDS011;17321;46.312;4.776;2024-01-16T05:55:37;29.27;;;14.35;;
30539;SDS011;17321;46.312;4.776;2024-01-16T05:58:03;24.30;;;11.98;;
30539;SDS011;17321;46.312;4.776;2024-01-16T06:00:29;26.90;;;12.02;;
30539;SDS011;17321;46.312;4.776;2024-01-16T06:02:55;29.10;;;13.63;;
30539;SDS011;17321;46.312;4.776;2024-01-16T06:05:21;30.20;;;14.43;;
30539;SDS011;17321;46.312;4.776;2024-01-16T06:07:47;29.50;;;14.07;;
30539;SDS011;17321;46.312;4.776;2024-01-16T06:10:13;37.05;;;17.92;;
30539;SDS011;17321;46.312;4.776;2024-01-16T06:12:39;31.85;;;17.33;;
30539;SDS011;17321;46.312;4.776;2024-01-16T06:15:05;36.58;;;17.92;;
30539;SDS011;17321;46.312;4.776;2024-01-16T06:17:31;28.23;;;15.02;;
30539;SDS011;17321;46.312;4.776;2024-01-16T06:19:57;31.70;;;13.95;;
30539;SDS011;17321;46.312;4.776;2024-01-16T06:22:23;37.25;;;16.77;;
30539;SDS011;17321;46.312;4.776;2024-01-16T06:24:49;32.35;;;15.10;;
30539;SDS011;17321;46.312;4.776;2024-01-16T06:27:16;29.70;;;14.88;;
30539;SDS011;17321;46.312;4.776;2024-01-16T06:29:47;29.02;;;13.30;;
30539;SDS011;17321;46.312;4.776;2024-01-16T06:32:13;26.75;;;13.15;;
30539;SDS011;17321;46.312;4.776;2024-01-16T06:34:39;34.03;;;18.13;;
30539;SDS011;17321;46.312;4.776;2024-01-16T06:37:05;38.45;;;18.30;;
30539;SDS011;17321;46.312;4.776;2024-01-16T06:39:31;31.17;;;16.27;;
30539;SDS011;17321;46.312;4.776;2024-01-16T06:41:58;26.77;;;14.68;;
30539;SDS011;17321;46.312;4.776;2024-01-16T06:44:24;26.38;;;14.50;;
30539;SDS011;17321;46.312;4.776;2024-01-16T06:46:50;27.58;;;12.52;;
30539;SDS011;17321;46.312;4.776;2024-01-16T06:49:16;26.90;;;13.80;;
30539;SDS011;17321;46.312;4.776;2024-01-16T06:51:42;27.50;;;13.82;;
30539;SDS011;17321;46.312;4.776;2024-01-16T06:54:08;26.60;;;13.25;;
30539;SDS011;17321;46.312;4.776;2024-01-16T06:56:34;27.95;;;13.88;;
30539;SDS011;17321;46.312;4.776;2024-01-16T06:59:00;24.55;;;13.65;;
30539;SDS011;17321;46.312;4.776;2024-01-16T07:01:26;25.40;;;13.02;;
30539;SDS011;17321;46.312;4.776;2024-01-16T07:03:52;26.83;;;13.82;;
30539;SDS011;17321;46.312;4.776;2024-01-16T07:06:18;25.55;;;13.60;;
30539;SDS011;17321;46.312;4.776;2024-01-16T07:08:44;23.23;;;13.05;;
30539;SDS011;17321;46.312;4.776;2024-01-16T07:11:10;25.42;;;13.38;;
30539;SDS011;17321;46.312;4.776;2024-01-16T07:13:41;32.00;;;15.02;;
30539;SDS011;17321;46.312;4.776;2024-01-16T07:16:10;29.08;;;14.88;;
30539;SDS011;17321;46.312;4.776;2024-01-16T07:21:02;36.28;;;18.80;;
30539;SDS011;17321;46.312;4.776;2024-01-16T07:23:29;37.97;;;18.50;;
30539;SDS011;17321;46.312;4.776;2024-01-16T07:25:55;41.00;;;18.77;;
30539;SDS011;17321;46.312;4.776;2024-01-16T07:28:21;41.38;;;18.77;;
30539;SDS011;17321;46.312;4.776;2024-01-16T07:30:48;37.67;;;19.27;;
30539;SDS011;17321;46.312;4.776;2024-01-16T07:33:14;35.30;;;18.75;;
30539;SDS011;17321;46.312;4.776;2024-01-16T07:35:40;42.88;;;18.48;;
30539;SDS011;17321;46.312;4.776;2024-01-16T07:38:08;35.28;;;19.30;;
30539;SDS011;17321;46.312;4.776;2024-01-16T07:40:34;39.75;;;19.33;;
30539;SDS011;17321;46.312;4.776;2024-01-16T07:43:00;48.10;;;22.00;;
30539;SDS011;17321;46.312;4.776;2024-01-16T07:45:26;44.00;;;20.50;;
30539;SDS011;17321;46.312;4.776;2024-01-16T07:47:52;42.58;;;19.92;;
30539;SDS011;17321;46.312;4.776;2024-01-16T07:50:18;38.30;;;20.15;;
30539;SDS011;17321;46.312;4.776;2024-01-16T07:52:44;45.72;;;22.45;;
30539;SDS011;17321;46.312;4.776;2024-01-16T07:55:10;47.67;;;21.35;;
30539;SDS011;17321;46.312;4.776;2024-01-16T07:57:36;41.15;;;19.63;;
30539;SDS011;17321;46.312;4.776;2024-01-16T08:00:02;46.83;;;22.52;;
30539;SDS011;17321;46.312;4.776;2024-01-16T08:02:33;45.85;;;22.27;;
30539;SDS011;17321;46.312;4.776;2024-01-16T08:04:59;45.63;;;23.30;;
30539;SDS011;17321;46.312;4.776;2024-01-16T08:07:26;53.90;;;26.85;;
30539;SDS011;17321;46.312;4.776;2024-01-16T08:09:52;49.78;;;24.83;;
30539;SDS011;17321;46.312;4.776;2024-01-16T08:12:18;53.92;;;25.30;;
30539;SDS011;17321;46.312;4.776;2024-01-16T08:14:44;45.40;;;23.23;;
30539;SDS011;17321;46.312;4.776;2024-01-16T08:17:10;47.90;;;23.90;;
30539;SDS011;17321;46.312;4.776;2024-01-16T08:19:36;52.50;;;23.90;;
30539;SDS011;17321;46.312;4.776;2024-01-16T08:22:03;54.00;;;25.40;;
30539;SDS011;17321;46.312;4.776;2024-01-16T08:24:29;52.05;;;25.17;;
30539;SDS011;17321;46.312;4.776;2024-01-16T08:26:55;47.58;;;25.23;;
30539;SDS011;17321;46.312;4.776;2024-01-16T08:29:23;50.40;;;24.20;;
30539;SDS011;17321;46.312;4.776;2024-01-16T08:31:49;54.75;;;25.80;;
30539;SDS011;17321;46.312;4.776;2024-01-16T08:34:17;52.60;;;23.85;;
30539;SDS011;17321;46.312;4.776;2024-01-16T08:36:43;46.40;;;23.63;;
30539;SDS011;17321;46.312;4.776;2024-01-16T08:39:09;51.70;;;25.17;;
30539;SDS011;17321;46.312;4.776;2024-01-16T08:41:36;44.58;;;23.77;;
30539;SDS011;17321;46.312;4.776;2024-01-16T08:44:02;49.65;;;24.00;;
30539;SDS011;17321;46.312;4.776;2024-01-16T08:46:29;65.13;;;26.23;;
30539;SDS011;17321;46.312;4.776;2024-01-16T08:48:55;53.47;;;24.77;;
30539;SDS011;17321;46.312;4.776;2024-01-16T08:51:21;56.40;;;25.77;;
30539;SDS011;17321;46.312;4.776;2024-01-16T08:53:48;54.38;;;24.15;;
30539;SDS011;17321;46.312;4.776;2024-01-16T08:56:14;56.80;;;24.98;;
30539;SDS011;17321;46.312;4.776;2024-01-16T08:58:41;45.88;;;23.95;;
30539;SDS011;17321;46.312;4.776;2024-01-16T09:01:07;48.85;;;23.63;;
30539;SDS011;17321;46.312;4.776;2024-01-16T09:03:35;43.67;;;24.02;;
30539;SDS011;17321;46.312;4.776;2024-01-16T09:06:01;46.30;;;21.80;;
30539;SDS011;17321;46.312;4.776;2024-01-16T09:08:27;43.90;;;22.02;;
30539;SDS011;17321;46.312;4.776;2024-01-16T09:10:54;51.78;;;25.27;;
30539;SDS011;17321;46.312;4.776;2024-01-16T09:13:20;44.05;;;23.75;;
30539;SDS011;17321;46.312;4.776;2024-01-16T09:15:47;43.22;;;21.27;;
30539;SDS011;17321;46.312;4.776;2024-01-16T09:18:14;55.60;;;25.65;;
30539;SDS011;17321;46.312;4.776;2024-01-16T09:20:40;63.38;;;28.60;;
30539;SDS011;17321;46.312;4.776;2024-01-16T09:23:06;82.30;;;32.60;;
30539;SDS011;17321;46.312;4.776;2024-01-16T09:25:33;53.10;;;27.70;;
30539;SDS011;17321;46.312;4.776;2024-01-16T09:28:00;62.08;;;28.50;;
30539;SDS011;17321;46.312;4.776;2024-01-16T09:30:26;61.50;;;26.98;;
30539;SDS011;17321;46.312;4.776;2024-01-16T09:32:52;56.70;;;28.73;;
30539;SDS011;17321;46.312;4.776;2024-01-16T09:35:18;55.70;;;27.58;;
30539;SDS011;17321;46.312;4.776;2024-01-16T09:37:44;55.60;;;27.02;;
30539;SDS011;17321;46.312;4.776;2024-01-16T09:40:10;54.72;;;25.58;;
30539;SDS011;17321;46.312;4.776;2024-01-16T09:42:36;55.13;;;25.75;;
30539;SDS011;17321;46.312;4.776;2024-01-16T09:45:02;44.70;;;24.10;;
30539;SDS011;17321;46.312;4.776;2024-01-16T09:47:32;53.88;;;27.77;;
30539;SDS011;17321;46.312;4.776;2024-01-16T09:50:01;53.83;;;26.20;;
30539;SDS011;17321;46.312;4.776;2024-01-16T09:52:28;66.25;;;28.10;;
30539;SDS011;17321;46.312;4.776;2024-01-16T09:54:54;70.55;;;30.10;;
30539;SDS011;17321;46.312;4.776;2024-01-16T09:57:22;53.38;;;24.83;;
30539;SDS011;17321;46.312;4.776;2024-01-16T09:59:48;59.75;;;25.83;;
30539;SDS011;17321;46.312;4.776;2024-01-16T10:02:14;63.20;;;27.00;;
30539;SDS011;17321;46.312;4.776;2024-01-16T10:04:43;54.97;;;25.98;;
30539;SDS011;17321;46.312;4.776;2024-01-16T10:07:10;53.63;;;26.55;;
30539;SDS011;17321;46.312;4.776;2024-01-16T10:09:40;57.60;;;28.40;;
30539;SDS011;17321;46.312;4.776;2024-01-16T10:12:06;62.83;;;28.83;;
30539;SDS011;17321;46.312;4.776;2024-01-16T10:14:35;52.72;;;27.73;;
30539;SDS011;17321;46.312;4.776;2024-01-16T10:17:03;55.00;;;26.77;;
30539;SDS011;17321;46.312;4.776;2024-01-16T10:19:30;52.42;;;26.17;;
30539;SDS011;17321;46.312;4.776;2024-01-16T10:22:03;56.67;;;27.92;;
30539;SDS011;17321;46.312;4.776;2024-01-16T10:24:29;51.55;;;25.80;;
30539;SDS011;17321;46.312;4.776;2024-01-16T10:26:59;50.30;;;25.90;;
30539;SDS011;17321;46.312;4.776;2024-01-16T10:29:26;51.03;;;25.88;;
30539;SDS011;17321;46.312;4.776;2024-01-16T10:31:52;50.65;;;26.17;;
30539;SDS011;17321;46.312;4.776;2024-01-16T10:34:21;50.78;;;26.00;;
30539;SDS011;17321;46.312;4.776;2024-01-16T10:36:49;50.83;;;25.08;;
30539;SDS011;17321;46.312;4.776;2024-01-16T10:39:15;49.95;;;24.75;;
30539;SDS011;17321;46.312;4.776;2024-01-16T10:41:41;48.97;;;25.58;;
30539;SDS011;17321;46.312;4.776;2024-01-16T10:44:08;51.17;;;26.58;;
30539;SDS011;17321;46.312;4.776;2024-01-16T10:46:34;50.50;;;26.58;;
30539;SDS011;17321;46.312;4.776;2024-01-16T10:49:01;51.10;;;25.33;;
30539;SDS011;17321;46.312;4.776;2024-01-16T10:51:27;58.40;;;27.92;;
30539;SDS011;17321;46.312;4.776;2024-01-16T10:53:57;55.15;;;26.23;;
30539;SDS011;17321;46.312;4.776;2024-01-16T10:58:53;52.33;;;25.48;;
30539;SDS011;17321;46.312;4.776;2024-01-16T11:01:23;48.25;;;25.17;;
30539;SDS011;17321;46.312;4.776;2024-01-16T11:03:50;50.33;;;25.40;;
30539;SDS011;17321;46.312;4.776;2024-01-16T11:06:18;44.05;;;22.88;;
30539;SDS011;17321;46.312;4.776;2024-01-16T11:08:47;50.78;;;25.30;;
30539;SDS011;17321;46.312;4.776;2024-01-16T11:11:14;42.60;;;24.52;;
30539;SDS011;17321;46.312;4.776;2024-01-16T11:13:40;49.92;;;25.38;;
30539;SDS011;17321;46.312;4.776;2024-01-16T11:16:10;49.65;;;25.52;;
30539;SDS011;17321;46.312;4.776;2024-01-16T11:18:36;51.03;;;24.63;;
30539;SDS011;17321;46.312;4.776;2024-01-16T11:21:03;50.97;;;24.30;;
30539;SDS011;17321;46.312;4.776;2024-01-16T11:23:30;45.80;;;25.17;;
30539;SDS011;17321;46.312;4.776;2024-01-16T11:25:56;51.50;;;24.77;;
30539;SDS011;17321;46.312;4.776;2024-01-16T11:28:26;58.22;;;26.73;;
30539;SDS011;17321;46.312;4.776;2024-01-16T11:30:53;55.15;;;25.88;;
30539;SDS011;17321;46.312;4.776;2024-01-16T11:35:57;52.67;;;27.50;;
30539;SDS011;17321;46.312;4.776;2024-01-16T11:38:23;53.90;;;26.33;;
30539;SDS011;17321;46.312;4.776;2024-01-16T11:40:52;60.33;;;25.77;;
30539;SDS011;17321;46.312;4.776;2024-01-16T11:46:00;47.08;;;25.40;;
30539;SDS011;17321;46.312;4.776;2024-01-16T11:48:26;49.88;;;26.10;;
30539;SDS011;17321;46.312;4.776;2024-01-16T11:50:53;52.47;;;26.05;;
30539;SDS011;17321;46.312;4.776;2024-01-16T11:55:59;56.15;;;29.13;;
30539;SDS011;17321;46.312;4.776;2024-01-16T12:01:17;55.63;;;27.60;;
30539;SDS011;17321;46.312;4.776;2024-01-16T12:04:01;59.30;;;28.25;;
30539;SDS011;17321;46.312;4.776;2024-01-16T12:06:27;58.60;;;27.65;;
30539;SDS011;17321;46.312;4.776;2024-01-16T12:08:53;50.78;;;26.75;;
30539;SDS011;17321;46.312;4.776;2024-01-16T12:11:19;53.88;;;27.58;;
30539;SDS011;17321;46.312;4.776;2024-01-16T12:14:00;59.63;;;29.02;;
30539;SDS011;17321;46.312;4.776;2024-01-16T12:16:26;57.92;;;28.75;;
30539;SDS011;17321;46.312;4.776;2024-01-16T12:19:03;53.10;;;27.67;;
30539;SDS011;17321;46.312;4.776;2024-01-16T12:21:29;51.42;;;28.13;;
30539;SDS011;17321;46.312;4.776;2024-01-16T12:23:55;48.90;;;25.88;;
30539;SDS011;17321;46.312;4.776;2024-01-16T12:26:22;60.15;;;27.88;;
30539;SDS011;17321;46.312;4.776;2024-01-16T12:28:51;53.45;;;28.20;;
30539;SDS011;17321;46.312;4.776;2024-01-16T12:31:18;51.42;;;27.17;;
30539;SDS011;17321;46.312;4.776;2024-01-16T12:33:44;58.75;;;28.02;;
30539;SDS011;17321;46.312;4.776;2024-01-16T12:36:10;53.13;;;26.65;;
30539;SDS011;17321;46.312;4.776;2024-01-16T12:38:36;53.92;;;26.17;;
30539;SDS011;17321;46.312;4.776;2024-01-16T12:41:02;59.45;;;27.30;;
30539;SDS011;17321;46.312;4.776;2024-01-16T12:43:32;58.65;;;28.63;;
30539;SDS011;17321;46.312;4.776;2024-01-16T12:45:58;58.25;;;26.15;;
30539;SDS011;17321;46.312;4.776;2024-01-16T12:48:27;51.17;;;26.73;;
30539;SDS011;17321;46.312;4.776;2024-01-16T12:50:59;46.33;;;24.27;;
30539;SDS011;17321;46.312;4.776;2024-01-16T12:53:29;51.83;;;25.98;;
30539;SDS011;17321;46.312;4.776;2024-01-16T12:55:59;42.83;;;23.35;;
30539;SDS011;17321;46.312;4.776;2024-01-16T13:00:53;50.50;;;25.10;;
30539;SDS011;17321;46.312;4.776;2024-01-16T13:03:21;45.72;;;25.33;;
30539;SDS011;17321;46.312;4.776;2024-01-16T13:05:57;49.30;;;24.85;;
30539;SDS011;17321;46.312;4.776;2024-01-16T13:08:23;49.85;;;25.20;;
30539;SDS011;17321;46.312;4.776;2024-01-16T13:11:03;44.47;;;23.83;;
30539;SDS011;17321;46.312;4.776;2024-01-16T13:13:29;54.85;;;27.25;;
30539;SDS011;17321;46.312;4.776;2024-01-16T13:15:55;53.00;;;25.92;;
30539;SDS011;17321;46.312;4.776;2024-01-16T13:18:25;55.35;;;28.23;;
30539;SDS011;17321;46.312;4.776;2024-01-16T13:20:52;62.05;;;29.08;;
30539;SDS011;17321;46.312;4.776;2024-01-16T13:23:18;61.78;;;27.73;;
30539;SDS011;17321;46.312;4.776;2024-01-16T13:25:45;51.45;;;27.08;;
30539;SDS011;17321;46.312;4.776;2024-01-16T13:28:12;50.70;;;27.63;;
30539;SDS011;17321;46.312;4.776;2024-01-16T13:30:39;61.95;;;29.35;;
30539;SDS011;17321;46.312;4.776;2024-01-16T13:33:05;58.97;;;30.20;;
30539;SDS011;17321;46.312;4.776;2024-01-16T13:35:31;57.85;;;29.85;;
30539;SDS011;17321;46.312;4.776;2024-01-16T13:37:58;63.28;;;30.73;;
30539;SDS011;17321;46.312;4.776;2024-01-16T13:40:24;57.88;;;29.83;;
30539;SDS011;17321;46.312;4.776;2024-01-16T13:42:50;55.25;;;29.20;;
30539;SDS011;17321;46.312;4.776;2024-01-16T13:45:16;58.88;;;29.83;;
30539;SDS011;17321;46.312;4.776;2024-01-16T13:47:43;74.50;;;33.05;;
30539;SDS011;17321;46.312;4.776;2024-01-16T13:50:09;68.40;;;32.15;;
30539;SDS011;17321;46.312;4.776;2024-01-16T13:52:35;54.75;;;30.08;;
30539;SDS011;17321;46.312;4.776;2024-01-16T13:55:02;50.33;;;25.83;;
30539;SDS011;17321;46.312;4.776;2024-01-16T13:57:30;60.77;;;28.03;;
30539;SDS011;17321;46.312;4.776;2024-01-16T13:59:57;48.28;;;26.50;;
30539;SDS011;17321;46.312;4.776;2024-01-16T14:02:23;51.47;;;27.25;;
30539;SDS011;17321;46.312;4.776;2024-01-16T14:04:49;53.08;;;27.77;;
30539;SDS011;17321;46.312;4.776;2024-01-16T14:07:15;52.45;;;26.83;;
30539;SDS011;17321;46.312;4.776;2024-01-16T14:09:41;57.03;;;28.38;;
30539;SDS011;17321;46.312;4.776;2024-01-16T14:12:08;55.17;;;27.95;;
30539;SDS011;17321;46.312;4.776;2024-01-16T14:14:34;50.05;;;27.38;;
30539;SDS011;17321;46.312;4.776;2024-01-16T14:17:01;54.45;;;28.80;;
30539;SDS011;17321;46.312;4.776;2024-01-16T14:19:28;56.35;;;27.52;;
30539;SDS011;17321;46.312;4.776;2024-01-16T14:21:55;53.22;;;28.02;;
30539;SDS011;17321;46.312;4.776;2024-01-16T14:24:21;54.97;;;29.27;;
30539;SDS011;17321;46.312;4.776;2024-01-16T14:26:47;53.63;;;26.98;;
30539;SDS011;17321;46.312;4.776;2024-01-16T14:29:13;51.90;;;27.38;;
30539;SDS011;17321;46.312;4.776;2024-01-16T14:31:40;53.20;;;26.95;;
30539;SDS011;17321;46.312;4.776;2024-01-16T14:34:13;50.67;;;26.40;;
30539;SDS011;17321;46.312;4.776;2024-01-16T14:36:39;49.05;;;26.70;;
30539;SDS011;17321;46.312;4.776;2024-01-16T14:39:05;48.30;;;26.92;;